Archival Weather

Tokyo Intl

Tokyo Intl, Japan (RJTT)

Report from: Friday, June 24, 2022 6:30 PM JST
Current time: Tuesday, August 16, 2022 4:04 PM JST

Current weather
Weather history
Weather forecast

Temperature28.0°C (82.4°F)
Heat index31.4°C (88.5°F)
Dew point23.0°C (73.4°F)
Winds 21 kts (10.8 m/s, 24.2 mph) South-Southwest (200°)
Wind gusts 32 kts (16.5 m/s, 36.8 mph)
Visibility6.2 mi. (10 km)
Clouds Ceiling: Broken clouds 0 ft. (0 m)
Few clouds 3,000 ft. (914 m)
Altimeter29.62 in.Hg (1003 mB)
Relative humidity74 %
Density altitude2,219 ft. (676 m)
Flight conditions Low Instrument Meteorological Conditions
Raw dataRJTT 240930Z 20021KT 9999 FEW030 BKN/// 28/23 Q1003 TEMPO 20022G32KT
An error has occurred. This application may no longer respond until reloaded. Reload 🗙